Sylvester, Georgia
Current Conditions -  °F | °C
As of 8:24 PM on Sunday 21 Dec 2014 (Local Time) from KABY Reporting Station
Haze Haze  
Wind Chill: 50°   Ceiling: 400
Heat Index: 50°   Visibility: 4mi
Dew Point: 50°   Wind: 8mph
Humidity: 100%   Direction: 70°ENE
Pressure: 30.09"   Gusts: NA
Location:  31.53°N, 83.83°W
Report Text: KABY 220124Z 07007KT 4SM BR OVC004 10/10 A3009 RMK AO2
Loading
Personal Weather Stations






























Interactive Weather Map New forecast layout! Learn more

10-Day Weather Forecast

Advertisements
Track Severe Weather on mobile